sensor_id;sensor_type;location;lat;lon;timestamp;pressure;altitude;pressure_sealevel;temperature;humidity
65685;BME280;52405;50.844;-1.062;2022-09-13T00:00:26;101100.59;;;20.72;57.96
65685;BME280;52405;50.844;-1.062;2022-09-13T00:02:51;101108.50;;;20.75;57.80
65685;BME280;52405;50.844;-1.062;2022-09-13T00:05:17;101112.03;;;20.75;58.38
65685;BME280;52405;50.844;-1.062;2022-09-13T00:07:42;101112.03;;;20.75;57.49
65685;BME280;52405;50.844;-1.062;2022-09-13T00:10:08;101110.28;;;20.76;57.68
65685;BME280;52405;50.844;-1.062;2022-09-13T00:12:34;101103.22;;;20.76;57.81
65685;BME280;52405;50.844;-1.062;2022-09-13T00:14:59;101085.63;;;20.71;57.88
65685;BME280;52405;50.844;-1.062;2022-09-13T00:17:25;101102.34;;;20.77;57.71
65685;BME280;52405;50.844;-1.062;2022-09-13T00:19:51;101095.31;;;20.76;57.87
65685;BME280;52405;50.844;-1.062;2022-09-13T00:22:16;101086.50;;;20.76;58.09
65685;BME280;52405;50.844;-1.062;2022-09-13T00:24:42;101091.81;;;20.77;58.13
65685;BME280;52405;50.844;-1.062;2022-09-13T00:27:07;101090.91;;;20.78;57.67
65685;BME280;52405;50.844;-1.062;2022-09-13T00:29:33;101085.63;;;20.80;57.85
65685;BME280;52405;50.844;-1.062;2022-09-13T00:31:58;101075.06;;;20.78;57.73
65685;BME280;52405;50.844;-1.062;2022-09-13T00:34:24;101074.19;;;20.81;57.32
65685;BME280;52405;50.844;-1.062;2022-09-13T00:36:49;101070.66;;;20.84;57.27
65685;BME280;52405;50.844;-1.062;2022-09-13T00:39:14;101066.25;;;20.84;57.33
65685;BME280;52405;50.844;-1.062;2022-09-13T00:41:40;101067.16;;;20.86;57.36
65685;BME280;52405;50.844;-1.062;2022-09-13T00:47:11;101052.19;;;20.82;57.23
65685;BME280;52405;50.844;-1.062;2022-09-13T00:49:40;101050.44;;;20.79;57.71
65685;BME280;52405;50.844;-1.062;2022-09-13T00:52:09;101044.28;;;20.76;57.35
65685;BME280;52405;50.844;-1.062;2022-09-13T00:54:48;101036.34;;;20.73;57.62
65685;BME280;52405;50.844;-1.062;2022-09-13T00:57:17;101037.25;;;20.73;57.23
65685;BME280;52405;50.844;-1.062;2022-09-13T00:59:51;101013.50;;;20.61;57.47
65685;BME280;52405;50.844;-1.062;2022-09-13T01:02:18;101024.94;;;20.68;57.89
65685;BME280;52405;50.844;-1.062;2022-09-13T01:04:44;101024.94;;;20.65;58.02
65685;BME280;52405;50.844;-1.062;2022-09-13T01:07:11;101032.00;;;20.64;57.97
65685;BME280;52405;50.844;-1.062;2022-09-13T01:09:41;101033.72;;;20.62;58.09
65685;BME280;52405;50.844;-1.062;2022-09-13T01:15:03;101034.59;;;20.59;58.22
65685;BME280;52405;50.844;-1.062;2022-09-13T01:17:31;100997.66;;;20.42;58.22
65685;BME280;52405;50.844;-1.062;2022-09-13T01:19:58;100989.72;;;20.36;58.09
65685;BME280;52405;50.844;-1.062;2022-09-13T01:25:48;101019.63;;;20.52;57.89
65685;BME280;52405;50.844;-1.062;2022-09-13T01:36:26;101027.53;;;20.51;57.38
65685;BME280;52405;50.844;-1.062;2022-09-13T01:42:03;101024.91;;;20.49;57.85
65685;BME280;52405;50.844;-1.062;2022-09-13T01:45:05;101024.03;;;20.49;57.79
65685;BME280;52405;50.844;-1.062;2022-09-13T01:56:02;101021.38;;;20.47;57.12
65685;BME280;52405;50.844;-1.062;2022-09-13T01:58:42;101033.72;;;20.47;57.04
65685;BME280;52405;50.844;-1.062;2022-09-13T02:06:14;101023.16;;;20.47;56.37
65685;BME280;52405;50.844;-1.062;2022-09-13T02:08:45;101024.91;;;20.49;56.38
65685;BME280;52405;50.844;-1.062;2022-09-13T02:11:14;101024.91;;;20.45;56.34
65685;BME280;52405;50.844;-1.062;2022-09-13T02:14:05;101035.47;;;20.52;55.82
65685;BME280;52405;50.844;-1.062;2022-09-13T02:17:00;101031.97;;;20.55;55.80
65685;BME280;52405;50.844;-1.062;2022-09-13T02:19:47;101035.47;;;20.55;56.28
65685;BME280;52405;50.844;-1.062;2022-09-13T02:22:20;101035.47;;;20.55;56.19
65685;BME280;52405;50.844;-1.062;2022-09-13T02:24:51;101005.56;;;20.46;56.33
65685;BME280;52405;50.844;-1.062;2022-09-13T02:27:24;101031.06;;;20.56;56.49
65685;BME280;52405;50.844;-1.062;2022-09-13T02:29:52;101031.94;;;20.56;56.17
65685;BME280;52405;50.844;-1.062;2022-09-13T02:32:30;101029.31;;;20.55;56.45
65685;BME280;52405;50.844;-1.062;2022-09-13T02:37:56;101030.19;;;20.55;56.37
65685;BME280;52405;50.844;-1.062;2022-09-13T02:40:25;101041.63;;;20.56;56.38
65685;BME280;52405;50.844;-1.062;2022-09-13T02:42:57;101035.47;;;20.55;56.05
65685;BME280;52405;50.844;-1.062;2022-09-13T02:45:29;101031.06;;;20.54;56.21
65685;BME280;52405;50.844;-1.062;2022-09-13T02:48:03;101004.69;;;20.37;56.48
65685;BME280;52405;50.844;-1.062;2022-09-13T02:51:01;101029.31;;;20.53;56.79
65685;BME280;52405;50.844;-1.062;2022-09-13T02:53:34;101028.44;;;20.50;56.72
65685;BME280;52405;50.844;-1.062;2022-09-13T02:56:04;101033.72;;;20.50;57.20
65685;BME280;52405;50.844;-1.062;2022-09-13T02:58:55;101039.00;;;20.50;57.33
65685;BME280;52405;50.844;-1.062;2022-09-13T03:01:23;101036.34;;;20.47;57.82
65685;BME280;52405;50.844;-1.062;2022-09-13T03:03:51;101035.44;;;20.49;58.13
65685;BME280;52405;50.844;-1.062;2022-09-13T03:06:25;101044.28;;;20.50;58.50
65685;BME280;52405;50.844;-1.062;2022-09-13T03:08:52;101026.69;;;20.42;58.68
65685;BME280;52405;50.844;-1.062;2022-09-13T03:14:33;101017.00;;;20.32;59.50
65685;BME280;52405;50.844;-1.062;2022-09-13T03:25:08;101038.97;;;20.45;60.70
65685;BME280;52405;50.844;-1.062;2022-09-13T03:30:29;101047.75;;;20.46;60.60
65685;BME280;52405;50.844;-1.062;2022-09-13T03:35:57;101046.91;;;20.42;61.19
65685;BME280;52405;50.844;-1.062;2022-09-13T03:38:31;101043.41;;;20.38;60.92
65685;BME280;52405;50.844;-1.062;2022-09-13T03:41:14;101052.19;;;20.42;61.44
65685;BME280;52405;50.844;-1.062;2022-09-13T03:43:48;101050.41;;;20.38;61.54
65685;BME280;52405;50.844;-1.062;2022-09-13T03:46:20;101052.19;;;20.39;61.94
65685;BME280;52405;50.844;-1.062;2022-09-13T03:48:49;101045.13;;;20.36;61.83
65685;BME280;52405;50.844;-1.062;2022-09-13T03:51:15;101046.03;;;20.35;62.63
65685;BME280;52405;50.844;-1.062;2022-09-13T03:53:51;101052.16;;;20.34;63.49
65685;BME280;52405;50.844;-1.062;2022-09-13T03:56:21;101057.44;;;20.30;63.30
65685;BME280;52405;50.844;-1.062;2022-09-13T03:58:47;101053.94;;;20.26;64.12
65685;BME280;52405;50.844;-1.062;2022-09-13T04:01:17;101060.09;;;20.22;63.64
65685;BME280;52405;50.844;-1.062;2022-09-13T04:03:43;101057.44;;;20.20;63.74
65685;BME280;52405;50.844;-1.062;2022-09-13T04:06:09;101064.47;;;20.18;64.18
65685;BME280;52405;50.844;-1.062;2022-09-13T04:08:35;101068.84;;;20.13;64.74
65685;BME280;52405;50.844;-1.062;2022-09-13T04:11:00;101065.34;;;20.13;64.85
65685;BME280;52405;50.844;-1.062;2022-09-13T04:13:26;101068.84;;;20.12;64.62
65685;BME280;52405;50.844;-1.062;2022-09-13T04:15:52;101063.56;;;20.10;65.06
65685;BME280;52405;50.844;-1.062;2022-09-13T04:18:18;101069.72;;;20.09;65.46
65685;BME280;52405;50.844;-1.062;2022-09-13T04:20:52;101055.63;;;20.01;66.19
65685;BME280;52405;50.844;-1.062;2022-09-13T04:23:18;101071.47;;;20.04;66.17
65685;BME280;52405;50.844;-1.062;2022-09-13T04:25:43;101072.34;;;20.03;66.17
65685;BME280;52405;50.844;-1.062;2022-09-13T04:28:10;101059.13;;;19.92;66.24
65685;BME280;52405;50.844;-1.062;2022-09-13T04:30:35;101077.63;;;19.98;66.82
65685;BME280;52405;50.844;-1.062;2022-09-13T04:33:01;101080.22;;;19.94;67.25
65685;BME280;52405;50.844;-1.062;2022-09-13T04:35:26;101081.13;;;19.93;66.92
65685;BME280;52405;50.844;-1.062;2022-09-13T04:37:55;101068.75;;;19.81;67.39
65685;BME280;52405;50.844;-1.062;2022-09-13T04:40:23;101080.22;;;19.88;67.62
65685;BME280;52405;50.844;-1.062;2022-09-13T04:42:48;101074.06;;;19.87;67.54
65685;BME280;52405;50.844;-1.062;2022-09-13T04:45:14;101080.19;;;19.84;67.82
65685;BME280;52405;50.844;-1.062;2022-09-13T04:47:39;101074.03;;;19.82;67.90
65685;BME280;52405;50.844;-1.062;2022-09-13T04:50:05;101068.75;;;19.75;67.97
65685;BME280;52405;50.844;-1.062;2022-09-13T04:52:31;101062.56;;;19.71;68.14
65685;BME280;52405;50.844;-1.062;2022-09-13T04:54:57;101074.91;;;19.78;68.13
65685;BME280;52405;50.844;-1.062;2022-09-13T04:57:26;101071.38;;;19.75;68.48
65685;BME280;52405;50.844;-1.062;2022-09-13T04:59:51;101075.72;;;19.71;68.98
65685;BME280;52405;50.844;-1.062;2022-09-13T05:02:17;101067.81;;;19.68;69.26
65685;BME280;52405;50.844;-1.062;2022-09-13T05:04:42;101075.69;;;19.67;68.93
65685;BME280;52405;50.844;-1.062;2022-09-13T05:07:08;101075.69;;;19.67;68.59
65685;BME280;52405;50.844;-1.062;2022-09-13T05:09:33;101075.72;;;19.65;69.35
65685;BME280;52405;50.844;-1.062;2022-09-13T05:11:58;101079.22;;;19.64;68.99
65685;BME280;52405;50.844;-1.062;2022-09-13T05:14:24;101080.13;;;19.63;69.10
65685;BME280;52405;50.844;-1.062;2022-09-13T05:16:49;101084.47;;;19.62;69.16
65685;BME280;52405;50.844;-1.062;2022-09-13T05:19:15;101091.50;;;19.62;69.37
65685;BME280;52405;50.844;-1.062;2022-09-13T05:21:40;101100.28;;;19.61;69.28
65685;BME280;52405;50.844;-1.062;2022-09-13T05:24:06;101107.31;;;19.60;69.55
65685;BME280;52405;50.844;-1.062;2022-09-13T05:26:32;101102.91;;;19.61;69.64
65685;BME280;52405;50.844;-1.062;2022-09-13T05:28:58;101109.09;;;19.61;69.22
65685;BME280;52405;50.844;-1.062;2022-09-13T05:34:00;101115.19;;;19.59;69.53
65685;BME280;52405;50.844;-1.062;2022-09-13T05:36:26;101046.53;;;19.17;69.82
65685;BME280;52405;50.844;-1.062;2022-09-13T05:38:53;101104.63;;;19.51;69.73
65685;BME280;52405;50.844;-1.062;2022-09-13T05:41:19;101116.97;;;19.58;69.99
65685;BME280;52405;50.844;-1.062;2022-09-13T05:43:44;101115.19;;;19.57;70.10
65685;BME280;52405;50.844;-1.062;2022-09-13T05:46:12;101114.31;;;19.55;69.92
65685;BME280;52405;50.844;-1.062;2022-09-13T05:48:38;101104.66;;;19.56;69.86
65685;BME280;52405;50.844;-1.062;2022-09-13T05:51:12;101099.38;;;19.54;70.24
65685;BME280;52405;50.844;-1.062;2022-09-13T05:53:39;101093.22;;;19.52;70.07
65685;BME280;52405;50.844;-1.062;2022-09-13T05:56:07;101087.97;;;19.52;70.53
65685;BME280;52405;50.844;-1.062;2022-09-13T05:58:33;101089.72;;;19.53;70.23
65685;BME280;52405;50.844;-1.062;2022-09-13T06:00:59;101094.13;;;19.54;70.35
65685;BME280;52405;50.844;-1.062;2022-09-13T06:03:26;101069.50;;;19.51;70.28
65685;BME280;52405;50.844;-1.062;2022-09-13T06:05:56;101080.06;;;19.54;70.40
65685;BME280;52405;50.844;-1.062;2022-09-13T06:08:26;101090.59;;;19.54;70.51
65685;BME280;52405;50.844;-1.062;2022-09-13T06:10:55;101094.97;;;19.53;70.19
65685;BME280;52405;50.844;-1.062;2022-09-13T06:13:22;101082.66;;;19.49;70.68
65685;BME280;52405;50.844;-1.062;2022-09-13T06:15:47;101084.44;;;19.50;70.38
65685;BME280;52405;50.844;-1.062;2022-09-13T06:18:13;101092.31;;;19.52;70.87
65685;BME280;52405;50.844;-1.062;2022-09-13T06:20:39;101087.94;;;19.51;70.31
65685;BME280;52405;50.844;-1.062;2022-09-13T06:23:04;101083.56;;;19.51;70.24
65685;BME280;52405;50.844;-1.062;2022-09-13T06:25:29;101092.34;;;19.53;70.58
65685;BME280;52405;50.844;-1.062;2022-09-13T06:27:55;101083.56;;;19.54;70.55
65685;BME280;52405;50.844;-1.062;2022-09-13T06:30:21;101081.81;;;19.56;70.79
65685;BME280;52405;50.844;-1.062;2022-09-13T06:32:46;101082.72;;;19.58;70.66
65685;BME280;52405;50.844;-1.062;2022-09-13T06:35:12;101080.06;;;19.57;70.52
65685;BME280;52405;50.844;-1.062;2022-09-13T06:37:37;101079.22;;;19.59;70.79
65685;BME280;52405;50.844;-1.062;2022-09-13T06:40:03;101081.84;;;19.59;70.57
65685;BME280;52405;50.844;-1.062;2022-09-13T06:42:32;101082.72;;;19.60;70.55
65685;BME280;52405;50.844;-1.062;2022-09-13T06:44:57;101084.50;;;19.59;70.78
65685;BME280;52405;50.844;-1.062;2022-09-13T06:47:22;101074.81;;;19.60;70.46
65685;BME280;52405;50.844;-1.062;2022-09-13T06:49:48;101075.72;;;19.63;70.38
65685;BME280;52405;50.844;-1.062;2022-09-13T06:52:13;101049.28;;;19.48;70.48
65685;BME280;52405;50.844;-1.062;2022-09-13T06:54:39;101061.66;;;19.61;70.77
65685;BME280;52405;50.844;-1.062;2022-09-13T06:57:04;101059.03;;;19.63;70.44
65685;BME280;52405;50.844;-1.062;2022-09-13T06:59:30;101059.91;;;19.63;70.57
65685;BME280;52405;50.844;-1.062;2022-09-13T07:01:55;101059.03;;;19.69;70.67
65685;BME280;52405;50.844;-1.062;2022-09-13T07:04:21;101056.41;;;19.71;70.46
65685;BME280;52405;50.844;-1.062;2022-09-13T07:06:48;101064.34;;;19.72;70.29
65685;BME280;52405;50.844;-1.062;2022-09-13T07:09:16;101056.44;;;19.72;70.40
65685;BME280;52405;50.844;-1.062;2022-09-13T07:11:43;101055.56;;;19.73;70.54
65685;BME280;52405;50.844;-1.062;2022-09-13T07:14:12;101040.59;;;19.71;70.48
65685;BME280;52405;50.844;-1.062;2022-09-13T07:16:38;101037.97;;;19.72;70.58
65685;BME280;52405;50.844;-1.062;2022-09-13T07:19:06;101041.50;;;19.77;70.43
65685;BME280;52405;50.844;-1.062;2022-09-13T07:21:33;101040.66;;;19.77;70.13
65685;BME280;52405;50.844;-1.062;2022-09-13T07:24:00;101036.19;;;19.70;70.28
65685;BME280;52405;50.844;-1.062;2022-09-13T07:26:26;101047.69;;;19.76;70.36
65685;BME280;52405;50.844;-1.062;2022-09-13T07:28:54;101046.81;;;19.76;70.35
65685;BME280;52405;50.844;-1.062;2022-09-13T07:31:22;101039.69;;;19.70;70.47
65685;BME280;52405;50.844;-1.062;2022-09-13T07:33:53;101043.25;;;19.72;70.53
65685;BME280;52405;50.844;-1.062;2022-09-13T07:36:19;101044.97;;;19.72;70.41
65685;BME280;52405;50.844;-1.062;2022-09-13T07:38:44;101045.88;;;19.71;70.52
65685;BME280;52405;50.844;-1.062;2022-09-13T07:41:15;101054.69;;;19.73;70.93
65685;BME280;52405;50.844;-1.062;2022-09-13T07:43:41;101047.59;;;19.70;70.80
65685;BME280;52405;50.844;-1.062;2022-09-13T07:46:08;101048.47;;;19.66;71.14
65685;BME280;52405;50.844;-1.062;2022-09-13T07:48:36;101040.56;;;19.60;71.34
65685;BME280;52405;50.844;-1.062;2022-09-13T07:51:11;101026.50;;;19.50;72.02
65685;BME280;52405;50.844;-1.062;2022-09-13T07:53:37;101032.59;;;19.43;72.29
65685;BME280;52405;50.844;-1.062;2022-09-13T07:58:38;101020.22;;;19.23;72.84
65685;BME280;52405;50.844;-1.062;2022-09-13T08:01:06;101012.28;;;19.14;72.71
65685;BME280;52405;50.844;-1.062;2022-09-13T08:03:35;101014.88;;;19.06;73.79
65685;BME280;52405;50.844;-1.062;2022-09-13T08:06:02;101007.81;;;18.99;73.65
65685;BME280;52405;50.844;-1.062;2022-09-13T08:08:29;101024.44;;;18.94;74.32
65685;BME280;52405;50.844;-1.062;2022-09-13T08:10:55;101014.75;;;18.86;74.28
65685;BME280;52405;50.844;-1.062;2022-09-13T08:13:21;101024.41;;;18.86;74.42
65685;BME280;52405;50.844;-1.062;2022-09-13T08:15:47;101029.66;;;18.84;75.18
65685;BME280;52405;50.844;-1.062;2022-09-13T08:18:14;101026.16;;;18.84;75.03
65685;BME280;52405;50.844;-1.062;2022-09-13T08:20:40;101035.75;;;18.82;74.96
65685;BME280;52405;50.844;-1.062;2022-09-13T08:23:06;101032.25;;;18.81;75.20
65685;BME280;52405;50.844;-1.062;2022-09-13T08:25:33;101019.91;;;18.76;75.44
65685;BME280;52405;50.844;-1.062;2022-09-13T08:28:00;101031.34;;;18.79;75.57
65685;BME280;52405;50.844;-1.062;2022-09-13T08:30:26;101037.44;;;18.78;75.65
65685;BME280;52405;50.844;-1.062;2022-09-13T08:32:58;101055.88;;;18.75;75.64
65685;BME280;52405;50.844;-1.062;2022-09-13T08:35:25;101078.69;;;18.79;75.47
65685;BME280;52405;50.844;-1.062;2022-09-13T08:37:51;101084.88;;;18.81;75.75
65685;BME280;52405;50.844;-1.062;2022-09-13T08:40:16;101096.31;;;18.85;76.00
65685;BME280;52405;50.844;-1.062;2022-09-13T08:43:00;101100.72;;;18.87;76.02
65685;BME280;52405;50.844;-1.062;2022-09-13T08:45:29;101075.19;;;18.77;75.66
65685;BME280;52405;50.844;-1.062;2022-09-13T08:48:02;101094.63;;;18.95;75.53
65685;BME280;52405;50.844;-1.062;2022-09-13T08:50:32;101092.03;;;18.98;75.94
65685;BME280;52405;50.844;-1.062;2022-09-13T08:55:48;101100.03;;;19.15;75.68
65685;BME280;52405;50.844;-1.062;2022-09-13T08:58:40;101100.97;;;19.26;76.16
65685;BME280;52405;50.844;-1.062;2022-09-13T09:03:44;101109.00;;;19.43;74.76
65685;BME280;52405;50.844;-1.062;2022-09-13T09:06:15;101102.00;;;19.53;74.83
65685;BME280;52405;50.844;-1.062;2022-09-13T09:08:52;101113.50;;;19.69;74.96
65685;BME280;52405;50.844;-1.062;2022-09-13T09:11:40;101113.59;;;19.84;74.45
65685;BME280;52405;50.844;-1.062;2022-09-13T09:14:19;101114.50;;;19.97;73.73
65685;BME280;52405;50.844;-1.062;2022-09-13T09:16:54;101118.06;;;20.03;73.05
65685;BME280;52405;50.844;-1.062;2022-09-13T09:19:28;101110.13;;;20.07;73.08
65685;BME280;52405;50.844;-1.062;2022-09-13T09:22:00;101127.75;;;20.11;72.78
65685;BME280;52405;50.844;-1.062;2022-09-13T09:24:26;101124.22;;;20.10;72.65
65685;BME280;52405;50.844;-1.062;2022-09-13T09:26:52;101107.50;;;20.02;72.33
65685;BME280;52405;50.844;-1.062;2022-09-13T09:29:23;101125.97;;;20.08;72.67
65685;BME280;52405;50.844;-1.062;2022-09-13T09:37:25;101135.63;;;20.05;72.23
65685;BME280;52405;50.844;-1.062;2022-09-13T09:39:54;101129.50;;;20.06;72.16
65685;BME280;52405;50.844;-1.062;2022-09-13T09:42:28;101125.97;;;20.02;72.08
65685;BME280;52405;50.844;-1.062;2022-09-13T09:45:12;101131.25;;;20.08;72.29
65685;BME280;52405;50.844;-1.062;2022-09-13T09:47:44;101141.78;;;20.08;72.26
65685;BME280;52405;50.844;-1.062;2022-09-13T09:50:22;101110.09;;;19.90;72.32
65685;BME280;52405;50.844;-1.062;2022-09-13T09:53:40;101145.31;;;20.07;72.22
65685;BME280;52405;50.844;-1.062;2022-09-13T09:56:01;101147.97;;;20.07;72.57
65685;BME280;52405;50.844;-1.062;2022-09-13T09:58:38;101146.19;;;20.08;72.05
65685;BME280;52405;50.844;-1.062;2022-09-13T10:01:05;101125.94;;;19.97;72.00
65685;BME280;52405;50.844;-1.062;2022-09-13T10:03:39;101140.03;;;20.06;72.19
65685;BME280;52405;50.844;-1.062;2022-09-13T10:08:35;101140.03;;;20.12;71.96
65685;BME280;52405;50.844;-1.062;2022-09-13T10:11:02;101140.06;;;20.13;72.07
65685;BME280;52405;50.844;-1.062;2022-09-13T10:13:28;101146.22;;;20.18;72.00
65685;BME280;52405;50.844;-1.062;2022-09-13T10:18:23;101141.84;;;20.20;71.57
65685;BME280;52405;50.844;-1.062;2022-09-13T10:21:06;101143.59;;;20.21;71.65
65685;BME280;52405;50.844;-1.062;2022-09-13T10:23:33;101142.72;;;20.22;71.50
65685;BME280;52405;50.844;-1.062;2022-09-13T10:26:01;101143.59;;;20.21;71.39
65685;BME280;52405;50.844;-1.062;2022-09-13T10:28:30;101122.47;;;20.11;71.04
65685;BME280;52405;50.844;-1.062;2022-09-13T10:31:02;101140.06;;;20.19;70.97
65685;BME280;52405;50.844;-1.062;2022-09-13T10:33:33;101144.44;;;20.14;70.72
65685;BME280;52405;50.844;-1.062;2022-09-13T10:36:03;101158.50;;;20.12;71.38
65685;BME280;52405;50.844;-1.062;2022-09-13T10:38:41;101163.78;;;20.13;71.20
65685;BME280;52405;50.844;-1.062;2022-09-13T10:41:20;101141.75;;;19.99;70.90
65685;BME280;52405;50.844;-1.062;2022-09-13T10:43:48;101164.66;;;20.11;70.75
65685;BME280;52405;50.844;-1.062;2022-09-13T10:46:22;101159.38;;;20.12;71.10
65685;BME280;52405;50.844;-1.062;2022-09-13T10:48:48;101137.38;;;19.98;70.99
65685;BME280;52405;50.844;-1.062;2022-09-13T10:56:35;101175.22;;;20.11;70.63
65685;BME280;52405;50.844;-1.062;2022-09-13T10:59:23;101175.19;;;20.06;70.59
65685;BME280;52405;50.844;-1.062;2022-09-13T11:30:04;101173.34;;;19.85;70.85
65685;BME280;52405;50.844;-1.062;2022-09-13T11:33:05;101168.06;;;19.87;71.17
65685;BME280;52405;50.844;-1.062;2022-09-13T11:39:12;101164.56;;;19.86;71.03
65685;BME280;52405;50.844;-1.062;2022-09-13T11:41:24;101154.88;;;19.82;70.44
65685;BME280;52405;50.844;-1.062;2022-09-13T11:55:16;101151.28;;;19.71;70.75
65685;BME280;52405;50.844;-1.062;2022-09-13T11:57:51;101153.03;;;19.69;71.01
65685;BME280;52405;50.844;-1.062;2022-09-13T12:00:23;101154.78;;;19.70;70.86
65685;BME280;52405;50.844;-1.062;2022-09-13T12:05:55;101156.50;;;19.64;71.16
65685;BME280;52405;50.844;-1.062;2022-09-13T12:08:29;101157.41;;;19.65;71.18
65685;BME280;52405;50.844;-1.062;2022-09-13T12:11:16;101156.53;;;19.63;70.91
65685;BME280;52405;50.844;-1.062;2022-09-13T12:13:48;101145.06;;;19.56;70.93
65685;BME280;52405;50.844;-1.062;2022-09-13T12:16:25;101152.06;;;19.54;71.04
65685;BME280;52405;50.844;-1.062;2022-09-13T12:18:56;101163.47;;;19.52;70.96
65685;BME280;52405;50.844;-1.062;2022-09-13T12:21:28;101154.66;;;19.50;71.09
65685;BME280;52405;50.844;-1.062;2022-09-13T12:26:45;101154.59;;;19.39;71.33
65685;BME280;52405;50.844;-1.062;2022-09-13T12:29:31;101150.19;;;19.30;71.62
65685;BME280;52405;50.844;-1.062;2022-09-13T12:32:05;101152.78;;;19.25;71.66
65685;BME280;52405;50.844;-1.062;2022-09-13T12:34:56;101142.16;;;19.15;72.35
65685;BME280;52405;50.844;-1.062;2022-09-13T13:02:00;101135.09;;;19.06;72.22
65685;BME280;52405;50.844;-1.062;2022-09-13T13:04:30;101147.41;;;19.12;72.17
65685;BME280;52405;50.844;-1.062;2022-09-13T13:09:36;101153.50;;;19.04;72.72
65685;BME280;52405;50.844;-1.062;2022-09-13T13:12:08;101135.03;;;18.97;72.84
65685;BME280;52405;50.844;-1.062;2022-09-13T13:17:38;101142.03;;;18.96;73.08
65685;BME280;52405;50.844;-1.062;2022-09-13T13:26:04;101143.75;;;18.90;73.59
65685;BME280;52405;50.844;-1.062;2022-09-13T14:05:24;101102.53;;;18.93;74.41
65685;BME280;52405;50.844;-1.062;2022-09-13T14:16:20;101105.06;;;18.81;74.79
65685;BME280;52405;50.844;-1.062;2022-09-13T14:21:39;101104.06;;;18.68;75.45
65685;BME280;52405;50.844;-1.062;2022-09-13T14:24:25;101101.38;;;18.65;76.15
65685;BME280;52405;50.844;-1.062;2022-09-13T14:26:52;101099.59;;;18.61;76.02
65685;BME280;52405;50.844;-1.062;2022-09-13T14:29:20;101097.81;;;18.60;76.25
65685;BME280;52405;50.844;-1.062;2022-09-13T14:31:48;101090.78;;;18.56;76.05
65685;BME280;52405;50.844;-1.062;2022-09-13T14:34:30;101092.56;;;18.57;76.76
65685;BME280;52405;50.844;-1.062;2022-09-13T14:36:59;101095.16;;;18.54;76.16
65685;BME280;52405;50.844;-1.062;2022-09-13T14:39:26;101088.13;;;18.51;76.61
65685;BME280;52405;50.844;-1.062;2022-09-13T14:42:13;101087.22;;;18.50;76.80
65685;BME280;52405;50.844;-1.062;2022-09-13T14:44:45;101083.75;;;18.52;76.99
65685;BME280;52405;50.844;-1.062;2022-09-13T14:47:25;101081.97;;;18.49;76.65
65685;BME280;52405;50.844;-1.062;2022-09-13T14:49:59;101077.56;;;18.48;76.98
65685;BME280;52405;50.844;-1.062;2022-09-13T14:52:30;101072.25;;;18.43;76.89
65685;BME280;52405;50.844;-1.062;2022-09-13T14:55:01;101071.38;;;18.41;77.06
65685;BME280;52405;50.844;-1.062;2022-09-13T14:57:36;101072.25;;;18.40;77.27
65685;BME280;52405;50.844;-1.062;2022-09-13T15:00:15;101062.59;;;18.39;77.50
65685;BME280;52405;50.844;-1.062;2022-09-13T15:02:47;101051.97;;;18.28;77.37
65685;BME280;52405;50.844;-1.062;2022-09-13T15:05:16;101066.06;;;18.35;77.41
65685;BME280;52405;50.844;-1.062;2022-09-13T15:07:42;101065.16;;;18.32;77.35
65685;BME280;52405;50.844;-1.062;2022-09-13T15:10:18;101061.66;;;18.31;77.12
65685;BME280;52405;50.844;-1.062;2022-09-13T15:18:02;101039.63;;;18.21;77.76
65685;BME280;52405;50.844;-1.062;2022-09-13T15:23:19;101031.72;;;18.17;78.46
65685;BME280;52405;50.844;-1.062;2022-09-13T15:25:55;101031.66;;;18.12;78.52
65685;BME280;52405;50.844;-1.062;2022-09-13T15:28:27;101014.97;;;18.05;78.19
65685;BME280;52405;50.844;-1.062;2022-09-13T15:30:54;101008.84;;;18.05;78.62
65685;BME280;52405;50.844;-1.062;2022-09-13T15:33:29;101004.41;;;18.02;78.30
65685;BME280;52405;50.844;-1.062;2022-09-13T15:41:38;100982.44;;;17.94;78.93
65685;BME280;52405;50.844;-1.062;2022-09-13T15:44:06;100981.56;;;17.95;79.19
65685;BME280;52405;50.844;-1.062;2022-09-13T15:46:54;100977.19;;;17.96;79.31
65685;BME280;52405;50.844;-1.062;2022-09-13T15:49:24;100985.06;;;17.92;79.42
65685;BME280;52405;50.844;-1.062;2022-09-13T15:51:59;100994.75;;;17.98;79.31
65685;BME280;52405;50.844;-1.062;2022-09-13T15:54:40;100988.59;;;17.99;79.41
65685;BME280;52405;50.844;-1.062;2022-09-13T15:57:26;100942.84;;;17.79;79.24
65685;BME280;52405;50.844;-1.062;2022-09-13T15:59:53;100984.25;;;18.01;78.98
65685;BME280;52405;50.844;-1.062;2022-09-13T16:04:50;100986.91;;;18.01;78.80
65685;BME280;52405;50.844;-1.062;2022-09-13T16:07:17;100971.97;;;18.00;79.22
65685;BME280;52405;50.844;-1.062;2022-09-13T16:09:44;100943.72;;;17.81;78.82
65685;BME280;52405;50.844;-1.062;2022-09-13T16:12:10;100962.34;;;17.98;79.23
65685;BME280;52405;50.844;-1.062;2022-09-13T16:14:35;100964.97;;;17.98;79.58
65685;BME280;52405;50.844;-1.062;2022-09-13T16:17:05;100979.81;;;17.97;79.34
65685;BME280;52405;50.844;-1.062;2022-09-13T16:19:32;100986.88;;;18.00;79.36
65685;BME280;52405;50.844;-1.062;2022-09-13T16:21:58;100988.63;;;18.02;78.95
65685;BME280;52405;50.844;-1.062;2022-09-13T16:24:23;100973.66;;;17.94;78.80
65685;BME280;52405;50.844;-1.062;2022-09-13T16:26:49;100991.31;;;18.07;78.71
65685;BME280;52405;50.844;-1.062;2022-09-13T16:29:14;100990.47;;;18.09;79.23
65685;BME280;52405;50.844;-1.062;2022-09-13T16:31:40;100979.91;;;18.06;78.74
65685;BME280;52405;50.844;-1.062;2022-09-13T16:34:05;100979.94;;;18.09;79.04
65685;BME280;52405;50.844;-1.062;2022-09-13T16:36:31;100983.47;;;18.11;78.75
65685;BME280;52405;50.844;-1.062;2022-09-13T16:38:58;100974.72;;;18.13;78.55
65685;BME280;52405;50.844;-1.062;2022-09-13T16:41:25;100948.28;;;17.97;78.40
65685;BME280;52405;50.844;-1.062;2022-09-13T16:43:53;100957.06;;;17.99;78.78